Terminal Aerodrome Forecast
Issued by NWS

Home | Current Version | Previous Version | Text Only | Print | Product List | Glossary On
Versions: 1 2 3 4 5 6 7 8 9 10 11 12 13 14 15 16
457
FTUS41 KPBZ 262327
TAFDUJ
TAF
KDUJ 262327Z 2700/2724 27006KT P6SM VCSH BKN025
     FM270200 28006KT P6SM SCT050
     FM270500 26005KT P6SM SKC
     FM271400 24010G20KT P6SM SKC=

USA.gov is the U.S. government's official web portal to all federal, state and local government web resources and services.